createdAt,value
2022-09-20T00:01:34.081Z,7.80
2022-09-20T00:04:05.780Z,7.78
2022-09-20T00:06:37.537Z,7.80
2022-09-20T00:09:07.169Z,7.78
2022-09-20T00:11:37.084Z,7.74
2022-09-20T00:14:08.864Z,7.75
2022-09-20T00:16:40.297Z,7.76
2022-09-20T00:19:10.473Z,7.73
2022-09-20T00:21:40.663Z,7.74
2022-09-20T00:24:09.394Z,7.74
2022-09-20T00:26:38.221Z,7.73
2022-09-20T00:29:06.653Z,7.74
2022-09-20T00:31:35.806Z,7.75
2022-09-20T00:34:21.535Z,7.74
2022-09-20T00:36:51.307Z,7.73
2022-09-20T00:39:19.638Z,7.71
2022-09-20T00:41:48.093Z,7.71
2022-09-20T00:44:45.492Z,7.75
2022-09-20T00:47:17.863Z,7.74
2022-09-20T00:49:46.868Z,7.77
2022-09-20T00:52:17.271Z,7.71
2022-09-20T00:54:45.747Z,7.78
2022-09-20T00:57:14.436Z,7.74
2022-09-20T00:59:44.989Z,7.74
2022-09-20T01:02:15.890Z,7.73
2022-09-20T01:04:44.835Z,7.73
2022-09-20T01:07:17.086Z,7.68
2022-09-20T01:09:45.752Z,7.63
2022-09-20T01:12:16.548Z,7.63
2022-09-20T01:14:46.058Z,7.62
2022-09-20T01:17:15.522Z,7.58
2022-09-20T01:19:50.604Z,7.59
2022-09-20T01:22:25.050Z,7.62
2022-09-20T01:24:57.973Z,7.58
2022-09-20T01:27:40.340Z,7.55
2022-09-20T01:30:10.550Z,7.55
2022-09-20T01:32:50.479Z,7.53
2022-09-20T01:35:21.423Z,7.54
2022-09-20T01:38:04.101Z,7.55
2022-09-20T01:40:36.901Z,7.52
2022-09-20T01:43:10.513Z,7.56
2022-09-20T01:45:41.947Z,7.54
2022-09-20T01:48:15.982Z,7.51
2022-09-20T01:51:00.630Z,7.52
2022-09-20T01:53:46.111Z,7.54
2022-09-20T01:56:53.897Z,7.49
2022-09-20T01:59:45.134Z,7.50
2022-09-20T02:02:44.110Z,7.48
2022-09-20T02:05:40.176Z,7.52
2022-09-20T02:08:44.942Z,7.49
2022-09-20T02:11:16.311Z,7.52
2022-09-20T02:13:59.181Z,7.51
2022-09-20T02:16:40.665Z,7.47
2022-09-20T02:19:29.700Z,7.50
2022-09-20T02:22:11.291Z,7.48
2022-09-20T02:24:45.264Z,7.52
2022-09-20T02:27:20.105Z,7.46
2022-09-20T02:29:59.767Z,7.40
2022-09-20T02:32:45.551Z,7.39
2022-09-20T02:35:21.331Z,7.37
2022-09-20T02:37:59.716Z,7.38
2022-09-20T02:40:41.291Z,7.36
2022-09-20T02:43:16.145Z,7.41
2022-09-20T02:45:49.597Z,7.39
2022-09-20T02:48:23.540Z,7.40
2022-09-20T02:50:57.448Z,7.39
2022-09-20T02:53:37.149Z,7.38
2022-09-20T02:56:11.165Z,7.42
2022-09-20T02:58:50.924Z,7.41
2022-09-20T03:01:26.894Z,7.41
2022-09-20T03:04:03.882Z,7.39
2022-09-20T03:06:41.380Z,7.39
2022-09-20T03:09:15.145Z,7.35
2022-09-20T03:11:50.196Z,7.38
2022-09-20T03:14:23.202Z,7.40
2022-09-20T03:17:04.118Z,7.42
2022-09-20T03:19:45.012Z,7.41
2022-09-20T03:22:22.211Z,7.37
2022-09-20T03:25:01.265Z,7.37
2022-09-20T03:27:33.808Z,7.29
2022-09-20T03:30:18.672Z,7.31
2022-09-20T03:32:56.999Z,7.30
2022-09-20T03:35:36.151Z,7.24
2022-09-20T03:38:18.297Z,7.28
2022-09-20T03:41:24.857Z,7.24
2022-09-20T03:44:05.438Z,7.26
2022-09-20T03:46:42.242Z,7.25
2022-09-20T03:49:51.527Z,7.23
2022-09-20T03:52:37.055Z,7.23
2022-09-20T03:55:53.634Z,7.29
2022-09-20T03:58:32.284Z,7.27
2022-09-20T04:01:10.605Z,7.26
2022-09-20T04:03:46.186Z,7.26
2022-09-20T04:06:38.554Z,7.30
2022-09-20T04:09:27.354Z,7.32
2022-09-20T04:12:02.853Z,7.31
2022-09-20T04:14:36.324Z,7.28
2022-09-20T04:17:20.494Z,7.31
2022-09-20T04:19:53.378Z,7.28
2022-09-20T04:22:23.271Z,7.24
2022-09-20T04:24:59.383Z,7.30
2022-09-20T04:27:30.680Z,7.26
2022-09-20T04:30:04.305Z,7.26
2022-09-20T04:32:37.601Z,7.29
2022-09-20T04:35:32.696Z,7.24
2022-09-20T04:38:06.231Z,7.18
2022-09-20T04:40:49.392Z,7.15
2022-09-20T04:43:39.029Z,7.14
2022-09-20T04:46:35.782Z,7.12
2022-09-20T04:49:49.099Z,7.14
2022-09-20T04:53:12.173Z,7.14
2022-09-20T04:56:02.072Z,7.14
2022-09-20T04:58:37.424Z,7.15
2022-09-20T05:01:58.528Z,7.16
2022-09-20T05:05:20.353Z,7.13
2022-09-20T05:08:43.667Z,7.18
2022-09-20T05:11:32.422Z,7.20
2022-09-20T05:14:19.676Z,7.25
2022-09-20T05:17:02.118Z,7.29
2022-09-20T05:19:34.501Z,7.29
2022-09-20T05:22:30.063Z,7.34
2022-09-20T05:25:22.118Z,7.37
2022-09-20T05:27:57.054Z,7.35
2022-09-20T05:30:33.775Z,7.43
2022-09-20T05:33:15.637Z,7.44
2022-09-20T05:35:50.387Z,7.47
2022-09-20T05:38:24.208Z,7.41
2022-09-20T05:41:07.017Z,7.46
2022-09-20T05:43:40.778Z,7.38
2022-09-20T05:46:18.155Z,7.47
2022-09-20T05:48:57.558Z,7.48
2022-09-20T05:51:37.491Z,7.50
2022-09-20T05:54:31.824Z,7.46
2022-09-20T05:57:11.771Z,7.43
2022-09-20T05:59:49.631Z,7.47
2022-09-20T06:02:26.698Z,7.52
2022-09-20T06:05:01.768Z,7.47
2022-09-20T06:07:40.047Z,7.48
2022-09-20T06:10:34.711Z,7.55
2022-09-20T06:13:09.344Z,7.61
2022-09-20T06:15:46.647Z,7.56
2022-09-20T06:18:24.427Z,7.47
2022-09-20T06:21:01.566Z,7.52
2022-09-20T06:23:32.289Z,7.60
2022-09-20T06:26:06.664Z,7.77
2022-09-20T06:28:37.153Z,8.01
2022-09-20T06:31:11.566Z,8.10
2022-09-20T06:33:45.086Z,8.43
2022-09-20T06:36:34.621Z,8.74
2022-09-20T06:39:25.395Z,8.58
2022-09-20T06:41:54.754Z,8.56
2022-09-20T06:44:23.969Z,8.58
2022-09-20T06:46:54.552Z,8.65
2022-09-20T06:49:24.250Z,8.63
2022-09-20T06:51:52.988Z,8.70
2022-09-20T06:54:23.245Z,8.87
2022-09-20T06:56:52.449Z,8.93
2022-09-20T06:59:22.801Z,8.85
2022-09-20T07:01:53.746Z,8.94
2022-09-20T07:04:26.714Z,8.94
2022-09-20T07:07:02.653Z,9.06
2022-09-20T07:09:33.752Z,8.93
2022-09-20T07:12:02.514Z,8.87
2022-09-20T07:14:31.229Z,9.16
2022-09-20T07:16:59.930Z,9.25
2022-09-20T07:19:29.717Z,9.46
2022-09-20T07:21:58.712Z,9.45
2022-09-20T07:24:27.457Z,9.60
2022-09-20T07:26:56.983Z,9.32
2022-09-20T07:29:26.019Z,9.19
2022-09-20T07:31:54.444Z,9.22
2022-09-20T07:34:23.218Z,9.24
2022-09-20T07:36:53.336Z,9.29
2022-09-20T07:39:22.027Z,9.38
2022-09-20T07:41:51.289Z,9.42
2022-09-20T07:44:24.985Z,9.46
2022-09-20T07:46:55.027Z,9.41
2022-09-20T07:49:24.284Z,9.30
2022-09-20T07:51:55.419Z,9.29
2022-09-20T07:54:24.242Z,9.35
2022-09-20T07:56:52.844Z,9.43
2022-09-20T07:59:22.765Z,9.51
2022-09-20T08:01:50.751Z,9.50
2022-09-20T08:04:20.506Z,9.60
2022-09-20T08:06:48.731Z,9.61
2022-09-20T08:09:19.363Z,9.66
2022-09-20T08:11:47.911Z,9.77
2022-09-20T08:14:17.258Z,10.13
2022-09-20T08:16:47.278Z,10.11
2022-09-20T08:19:17.306Z,10.22
2022-09-20T08:21:45.720Z,10.33
2022-09-20T08:24:16.156Z,10.54
2022-09-20T08:26:46.112Z,10.33
2022-09-20T08:29:15.309Z,10.06
2022-09-20T08:31:43.694Z,10.23
2022-09-20T08:34:14.019Z,10.47
2022-09-20T08:36:45.485Z,10.62
2022-09-20T08:42:13.064Z,10.87
2022-09-20T08:44:47.831Z,10.85
2022-09-20T08:47:19.249Z,10.95
2022-09-20T08:49:47.329Z,11.20
2022-09-20T08:52:19.641Z,11.02
2022-09-20T08:54:48.224Z,11.37
2022-09-20T08:57:19.771Z,11.69
2022-09-20T08:59:48.401Z,11.76
2022-09-20T09:02:18.397Z,11.76
2022-09-20T09:04:47.405Z,11.62
2022-09-20T09:07:19.776Z,11.62
2022-09-20T09:09:48.449Z,11.47
2022-09-20T09:12:23.377Z,11.34
2022-09-20T09:14:55.224Z,11.21
2022-09-20T09:17:28.391Z,11.13
2022-09-20T09:19:57.395Z,11.30
2022-09-20T09:22:32.260Z,11.18
2022-09-20T09:25:24.784Z,11.32
2022-09-20T09:27:57.659Z,11.32
2022-09-20T09:30:28.389Z,11.21
2022-09-20T09:33:23.861Z,11.23
2022-09-20T09:36:00.286Z,11.80
2022-09-20T09:38:31.329Z,12.68
2022-09-20T09:41:01.635Z,13.38
2022-09-20T09:43:33.589Z,12.76
2022-09-20T09:46:17.831Z,12.41
2022-09-20T09:48:50.094Z,12.34
2022-09-20T09:51:20.679Z,12.43
2022-09-20T09:53:50.208Z,12.54
2022-09-20T09:56:38.907Z,12.46
2022-09-20T09:59:28.423Z,12.26
2022-09-20T10:02:04.439Z,12.31
2022-09-20T10:04:36.260Z,12.29
2022-09-20T10:07:10.349Z,12.32
2022-09-20T10:09:54.076Z,12.86
2022-09-20T10:12:34.843Z,13.00
2022-09-20T10:15:14.437Z,13.35
2022-09-20T10:17:52.412Z,13.13
2022-09-20T10:20:31.271Z,13.21
2022-09-20T10:23:39.465Z,13.74
2022-09-20T10:25:58.332Z,14.78
2022-09-20T10:28:48.405Z,14.96
2022-09-20T10:31:31.995Z,14.63
2022-09-20T10:34:28.955Z,14.37
2022-09-20T10:36:59.455Z,13.95
2022-09-20T10:39:32.922Z,14.37
2022-09-20T10:42:26.880Z,14.59
2022-09-20T10:45:05.683Z,14.76
2022-09-20T10:47:40.650Z,15.69
2022-09-20T10:50:21.196Z,16.12
2022-09-20T10:53:02.826Z,15.62
2022-09-20T10:55:40.369Z,14.74
2022-09-20T10:58:30.626Z,14.03
2022-09-20T11:01:02.607Z,13.89
2022-09-20T11:03:44.645Z,13.97
2022-09-20T11:06:17.586Z,14.00
2022-09-20T11:08:50.805Z,14.21
2022-09-20T11:11:22.087Z,14.46
2022-09-20T11:13:57.918Z,15.20
2022-09-20T11:16:29.522Z,15.73
2022-09-20T11:19:04.004Z,15.88
2022-09-20T11:21:38.485Z,16.52
2022-09-20T11:24:15.174Z,16.78
2022-09-20T11:26:46.244Z,16.46
2022-09-20T11:29:26.195Z,16.81
2022-09-20T11:31:58.677Z,17.79
2022-09-20T11:34:31.287Z,17.53
2022-09-20T11:37:02.697Z,16.54
2022-09-20T11:39:36.603Z,15.91
2022-09-20T11:42:05.875Z,15.48
2022-09-20T11:44:34.430Z,16.36
2022-09-20T11:47:06.320Z,18.29
2022-09-20T11:49:43.510Z,20.41
2022-09-20T11:52:28.710Z,23.86
2022-09-20T11:55:18.639Z,22.29
2022-09-20T11:57:47.254Z,21.17
2022-09-20T12:00:17.782Z,19.28
2022-09-20T12:02:49.172Z,18.27
2022-09-20T12:05:34.010Z,18.41
2022-09-20T12:08:03.390Z,21.07
2022-09-20T12:10:35.270Z,21.47
2022-09-20T12:13:05.682Z,23.02
2022-09-20T12:15:35.470Z,22.38
2022-09-20T12:18:16.645Z,20.81
2022-09-20T12:21:15.296Z,24.12
2022-09-20T12:23:49.175Z,24.96
2022-09-20T12:26:45.367Z,24.14
2022-09-20T12:29:55.592Z,24.10
2022-09-20T12:32:56.439Z,24.91
2022-09-20T12:36:15.731Z,24.42
2022-09-20T12:38:58.333Z,26.10
2022-09-20T12:41:28.966Z,24.91
2022-09-20T12:44:03.907Z,23.73
2022-09-20T12:46:39.294Z,25.31
2022-09-20T12:49:50.654Z,22.93
2022-09-20T12:52:42.489Z,21.30
2022-09-20T12:55:14.406Z,20.33
2022-09-20T12:57:43.828Z,22.43
2022-09-20T13:00:34.551Z,22.23
2022-09-20T13:03:12.195Z,20.73
2022-09-20T13:05:42.124Z,19.36
2022-09-20T13:08:17.913Z,18.37
2022-09-20T13:10:51.115Z,17.73
2022-09-20T13:13:37.063Z,17.54
2022-09-20T13:16:07.987Z,17.31
2022-09-20T13:18:36.255Z,17.26
2022-09-20T13:21:07.202Z,18.85
2022-09-20T13:23:45.112Z,19.39
2022-09-20T13:26:16.297Z,19.25
2022-09-20T13:28:49.045Z,20.19
2022-09-20T13:31:24.261Z,19.98
2022-09-20T13:33:52.808Z,19.66
2022-09-20T13:36:27.318Z,18.69
2022-09-20T13:38:57.517Z,17.99
2022-09-20T13:41:29.338Z,17.90
2022-09-20T13:43:57.473Z,18.40
2022-09-20T13:46:30.149Z,18.65
2022-09-20T13:49:08.663Z,18.37
2022-09-20T13:51:36.990Z,18.26
2022-09-20T13:54:25.647Z,17.80
2022-09-20T13:56:56.745Z,17.18
2022-09-20T13:59:26.049Z,16.81
2022-09-20T14:01:55.520Z,17.15
2022-09-20T14:04:25.934Z,17.46
2022-09-20T14:06:54.690Z,16.87
2022-09-20T14:09:28.563Z,16.02
2022-09-20T14:11:59.054Z,15.92
2022-09-20T14:14:28.200Z,15.86
2022-09-20T14:16:58.102Z,15.81
2022-09-20T14:19:31.980Z,15.59
2022-09-20T14:22:00.842Z,15.22
2022-09-20T14:24:31.940Z,15.01
2022-09-20T14:27:22.403Z,14.88
2022-09-20T14:29:51.026Z,14.77
2022-09-20T14:32:43.218Z,14.75
2022-09-20T14:35:17.976Z,14.64
2022-09-20T14:37:48.346Z,14.53
2022-09-20T14:40:26.599Z,14.42
2022-09-20T14:43:00.497Z,14.28
2022-09-20T14:45:31.920Z,14.09
2022-09-20T14:48:10.085Z,13.96
2022-09-20T14:50:40.942Z,13.76
2022-09-20T14:53:26.675Z,13.49
2022-09-20T14:56:00.592Z,13.30
2022-09-20T14:58:31.215Z,13.14
2022-09-20T15:01:03.621Z,13.03
2022-09-20T15:03:34.031Z,12.89
2022-09-20T15:06:02.118Z,12.90
2022-09-20T15:08:30.287Z,12.83
2022-09-20T15:11:00.432Z,12.82
2022-09-20T15:13:30.186Z,12.87
2022-09-20T15:15:59.615Z,12.83
2022-09-20T15:18:29.483Z,12.89
2022-09-20T15:20:57.857Z,12.88
2022-09-20T15:23:26.076Z,12.87
2022-09-20T15:25:55.458Z,12.86
2022-09-20T15:28:24.117Z,12.80
2022-09-20T15:30:53.846Z,12.76
2022-09-20T15:33:23.040Z,12.84
2022-09-20T15:35:51.556Z,13.04
2022-09-20T15:38:20.558Z,13.30
2022-09-20T15:40:50.489Z,13.43
2022-09-20T15:43:22.190Z,13.24
2022-09-20T15:45:51.864Z,13.23
2022-09-20T15:48:23.359Z,13.31
2022-09-20T15:51:03.042Z,13.28
2022-09-20T15:53:33.749Z,13.27
2022-09-20T15:56:03.181Z,13.23
2022-09-20T15:58:35.976Z,13.05
2022-09-20T16:01:07.145Z,12.89
2022-09-20T16:03:37.681Z,12.51
2022-09-20T16:06:06.830Z,12.40
2022-09-20T16:08:36.214Z,12.31
2022-09-20T16:11:05.820Z,12.26
2022-09-20T16:13:36.589Z,12.19
2022-09-20T16:16:06.275Z,12.10
2022-09-20T16:18:54.021Z,12.08
2022-09-20T16:21:23.277Z,12.05
2022-09-20T16:23:53.286Z,12.04
2022-09-20T16:26:22.642Z,12.04
2022-09-20T16:28:50.935Z,11.97
2022-09-20T16:31:37.087Z,11.94
2022-09-20T16:34:09.482Z,11.91
2022-09-20T16:36:38.795Z,11.88
2022-09-20T16:39:07.707Z,11.83
2022-09-20T16:41:36.674Z,11.76
2022-09-20T16:44:05.564Z,11.69
2022-09-20T16:46:37.584Z,11.65
2022-09-20T16:49:09.741Z,11.43
2022-09-20T16:51:39.656Z,11.36
2022-09-20T16:54:12.255Z,11.38
2022-09-20T16:56:42.743Z,11.40
2022-09-20T16:59:12.607Z,11.42
2022-09-20T17:01:43.013Z,11.42
2022-09-20T17:04:15.761Z,11.40
2022-09-20T17:06:46.094Z,11.39
2022-09-20T17:09:15.344Z,11.36
2022-09-20T17:11:46.649Z,11.33
2022-09-20T17:14:17.906Z,11.31
2022-09-20T17:16:48.951Z,11.23
2022-09-20T17:19:21.449Z,11.22
2022-09-20T17:21:51.558Z,11.20
2022-09-20T17:24:22.278Z,11.16
2022-09-20T17:26:53.600Z,11.15
2022-09-20T17:29:24.283Z,11.17
2022-09-20T17:31:56.679Z,11.17
2022-09-20T17:34:29.612Z,11.13
2022-09-20T17:36:59.288Z,11.09
2022-09-20T17:39:28.005Z,11.05
2022-09-20T17:41:56.735Z,11.02
2022-09-20T17:44:25.527Z,11.01
2022-09-20T17:46:54.250Z,10.98
2022-09-20T17:49:24.133Z,10.97
2022-09-20T17:51:55.927Z,10.96
2022-09-20T17:54:25.132Z,10.90
2022-09-20T17:56:56.130Z,10.90
2022-09-20T17:59:25.037Z,10.88
2022-09-20T18:01:54.508Z,10.86
2022-09-20T18:04:24.656Z,10.80
2022-09-20T18:06:55.844Z,10.76
2022-09-20T18:09:26.077Z,10.72
2022-09-20T18:11:56.136Z,10.68
2022-09-20T18:14:25.903Z,10.65
2022-09-20T18:16:55.157Z,10.67
2022-09-20T18:19:23.874Z,10.61
2022-09-20T18:21:52.590Z,10.60
2022-09-20T18:24:22.685Z,10.56
2022-09-20T18:26:51.571Z,10.48
2022-09-20T18:29:20.417Z,10.42
2022-09-20T18:31:50.081Z,10.34
2022-09-20T18:34:19.982Z,10.26
2022-09-20T18:36:53.189Z,10.18
2022-09-20T18:39:24.272Z,10.12
2022-09-20T18:41:53.519Z,10.04
2022-09-20T18:44:25.654Z,9.96
2022-09-20T18:46:55.153Z,9.90
2022-09-20T18:49:25.576Z,9.83
2022-09-20T18:51:54.308Z,9.79
2022-09-20T18:54:24.666Z,9.74
2022-09-20T18:56:54.020Z,9.72
2022-09-20T18:59:24.271Z,9.67
2022-09-20T19:02:17.225Z,9.69
2022-09-20T19:05:15.463Z,9.68
2022-09-20T19:07:58.561Z,9.71
2022-09-20T19:10:47.276Z,9.73
2022-09-20T19:13:28.155Z,9.74
2022-09-20T19:16:17.172Z,9.72
2022-09-20T19:19:09.086Z,9.68
2022-09-20T19:21:42.846Z,9.67
2022-09-20T19:24:23.826Z,9.65
2022-09-20T19:26:54.288Z,9.66
2022-09-20T19:29:24.928Z,9.70
2022-09-20T19:31:55.658Z,9.70
2022-09-20T19:34:26.251Z,9.75
2022-09-20T19:37:02.205Z,9.79
2022-09-20T19:39:39.229Z,9.83
2022-09-20T19:42:16.582Z,9.84
2022-09-20T19:44:52.651Z,9.82
2022-09-20T19:47:30.575Z,9.80
2022-09-20T19:50:05.040Z,9.77
2022-09-20T19:52:34.158Z,9.77
2022-09-20T19:55:03.393Z,9.77
2022-09-20T19:57:38.693Z,9.80
2022-09-20T20:00:09.620Z,9.80
2022-09-20T20:02:38.948Z,9.82
2022-09-20T20:05:08.917Z,9.81
2022-09-20T20:07:42.614Z,9.78
2022-09-20T20:10:18.549Z,9.74
2022-09-20T20:12:54.457Z,9.74
2022-09-20T20:15:37.469Z,9.69
2022-09-20T20:18:12.252Z,9.62
2022-09-20T20:20:46.590Z,9.53
2022-09-20T20:23:41.370Z,9.46
2022-09-20T20:26:10.785Z,9.43
2022-09-20T20:28:40.749Z,9.37
2022-09-20T20:31:12.570Z,9.33
2022-09-20T20:33:41.696Z,9.26
2022-09-20T20:36:11.989Z,9.20
2022-09-20T20:38:41.834Z,9.15
2022-09-20T20:41:11.867Z,9.13
2022-09-20T20:43:43.141Z,9.13
2022-09-20T20:46:14.510Z,9.09
2022-09-20T20:48:43.734Z,9.03
2022-09-20T20:51:13.756Z,9.02
2022-09-20T20:53:47.213Z,9.02
2022-09-20T20:56:17.465Z,8.95
2022-09-20T20:58:48.318Z,8.98
2022-09-20T21:01:18.423Z,9.02
2022-09-20T21:03:49.104Z,9.04
2022-09-20T21:06:18.139Z,9.07
2022-09-20T21:08:49.594Z,9.05
2022-09-20T21:11:23.571Z,9.07
2022-09-20T21:13:53.825Z,9.06
2022-09-20T21:16:24.349Z,9.02
2022-09-20T21:18:53.200Z,9.06
2022-09-20T21:21:24.165Z,9.09
2022-09-20T21:23:54.714Z,9.13
2022-09-20T21:26:24.097Z,9.14
2022-09-20T21:28:55.153Z,9.09
2022-09-20T21:31:24.415Z,9.16
2022-09-20T21:33:53.156Z,9.09
2022-09-20T21:36:23.287Z,9.09
2022-09-20T21:38:52.098Z,9.17
2022-09-20T21:41:22.531Z,9.10
2022-09-20T21:43:55.423Z,9.05
2022-09-20T21:46:25.876Z,9.00
2022-09-20T21:48:54.397Z,9.01
2022-09-20T21:51:23.468Z,8.93
2022-09-20T21:53:56.596Z,8.88
2022-09-20T21:56:27.533Z,8.78
2022-09-20T21:58:57.433Z,8.73
2022-09-20T22:01:27.362Z,8.67
2022-09-20T22:03:59.259Z,8.60
2022-09-20T22:06:29.828Z,8.55
2022-09-20T22:09:01.312Z,8.48
2022-09-20T22:11:31.464Z,8.44
2022-09-20T22:14:01.856Z,8.37
2022-09-20T22:16:31.679Z,8.31
2022-09-20T22:19:01.721Z,8.25
2022-09-20T22:21:31.659Z,8.22
2022-09-20T22:24:01.767Z,8.20
2022-09-20T22:26:32.460Z,8.20
2022-09-20T22:29:03.037Z,8.20
2022-09-20T22:31:31.760Z,8.17
2022-09-20T22:34:02.548Z,8.15
2022-09-20T22:36:32.765Z,8.19
2022-09-20T22:39:01.275Z,8.22
2022-09-20T22:41:30.988Z,8.24
2022-09-20T22:43:59.666Z,8.28
2022-09-20T22:46:31.047Z,8.31
2022-09-20T22:48:59.714Z,8.32
2022-09-20T22:51:30.915Z,8.38
2022-09-20T22:53:59.601Z,8.40
2022-09-20T22:56:30.031Z,8.43
2022-09-20T22:59:00.284Z,8.45
2022-09-20T23:01:32.096Z,8.47
2022-09-20T23:04:03.315Z,8.46
2022-09-20T23:06:33.581Z,8.42
2022-09-20T23:09:03.582Z,8.44
2022-09-20T23:11:32.514Z,8.40
2022-09-20T23:14:03.446Z,8.41
2022-09-20T23:16:34.629Z,8.38
2022-09-20T23:19:04.768Z,8.36
2022-09-20T23:21:34.156Z,8.36
2022-09-20T23:24:04.095Z,8.35
2022-09-20T23:26:33.977Z,8.34
2022-09-20T23:29:03.891Z,8.39
2022-09-20T23:31:34.980Z,8.38
2022-09-20T23:34:05.470Z,8.39
2022-09-20T23:36:35.953Z,8.38
2022-09-20T23:39:04.834Z,8.39
2022-09-20T23:41:33.659Z,8.40
2022-09-20T23:44:03.052Z,8.35
2022-09-20T23:46:31.551Z,8.38
2022-09-20T23:49:01.610Z,8.37
2022-09-20T23:51:30.826Z,8.42
2022-09-20T23:53:59.525Z,8.44
2022-09-20T23:56:28.918Z,8.46
2022-09-20T23:58:57.663Z,8.43
